createdAt,value
2022-12-28T00:02:18.843Z,51.10
2022-12-28T00:04:45.714Z,51.01
2022-12-28T00:07:12.849Z,51.03
2022-12-28T00:09:39.584Z,51.09
2022-12-28T00:12:06.665Z,51.12
2022-12-28T00:14:33.393Z,51.04
2022-12-28T00:17:00.588Z,50.86
2022-12-28T00:19:27.470Z,51.31
2022-12-28T00:21:54.547Z,51.33
2022-12-28T00:24:22.715Z,51.42
2022-12-28T00:26:49.977Z,51.15
2022-12-28T00:29:16.921Z,51.32
2022-12-28T00:31:45.954Z,51.24
2022-12-28T00:34:13.161Z,51.35
2022-12-28T00:37:10.747Z,51.65
2022-12-28T00:39:27.018Z,51.48
2022-12-28T00:41:54.075Z,51.24
2022-12-28T00:44:20.844Z,51.29
2022-12-28T00:46:47.957Z,51.40
2022-12-28T00:49:14.724Z,51.56
2022-12-28T00:51:41.812Z,51.53
2022-12-28T00:54:08.634Z,51.23
2022-12-28T00:56:35.759Z,51.08
2022-12-28T00:59:02.563Z,51.25
2022-12-28T01:01:29.862Z,51.34
2022-12-28T01:03:57.313Z,51.50
2022-12-28T01:06:25.558Z,51.31
2022-12-28T01:08:52.526Z,51.52
2022-12-28T01:11:24.370Z,51.49
2022-12-28T01:13:51.669Z,51.62
2022-12-28T01:16:29.643Z,51.43
2022-12-28T01:18:58.076Z,51.74
2022-12-28T01:21:26.740Z,51.48
2022-12-28T01:23:55.097Z,51.58
2022-12-28T01:26:22.302Z,51.58
2022-12-28T01:28:49.044Z,51.26
2022-12-28T01:31:17.161Z,51.66
2022-12-28T01:33:44.074Z,51.56
2022-12-28T01:36:15.979Z,51.52
2022-12-28T01:38:43.339Z,51.50
2022-12-28T01:41:13.539Z,51.72
2022-12-28T01:43:41.341Z,51.48
2022-12-28T01:46:10.293Z,51.64
2022-12-28T01:48:37.117Z,51.62
2022-12-28T01:51:04.260Z,51.47
2022-12-28T01:53:31.032Z,51.83
2022-12-28T01:55:58.134Z,51.74
2022-12-28T01:58:26.051Z,51.68
2022-12-28T02:00:53.134Z,52.12
2022-12-28T02:03:25.198Z,51.63
2022-12-28T02:05:53.484Z,51.66
2022-12-28T02:08:31.156Z,51.95
2022-12-28T02:10:58.240Z,51.54
2022-12-28T02:13:25.056Z,51.71
2022-12-28T02:15:52.072Z,51.66
2022-12-28T02:18:19.426Z,51.50
2022-12-28T02:20:52.755Z,51.63
2022-12-28T02:23:51.159Z,51.89
2022-12-28T02:26:43.132Z,51.44
2022-12-28T02:29:15.580Z,51.50
2022-12-28T02:31:44.896Z,51.61
2022-12-28T02:34:20.110Z,51.35
2022-12-28T02:36:51.135Z,51.73
2022-12-28T02:39:20.758Z,51.89
2022-12-28T02:41:47.801Z,51.45
2022-12-28T02:44:34.500Z,51.52
2022-12-28T02:47:20.068Z,51.70
2022-12-28T02:50:05.478Z,51.45
2022-12-28T02:52:46.674Z,51.37
2022-12-28T02:55:50.402Z,51.36
2022-12-28T02:58:28.346Z,51.83
2022-12-28T03:01:20.314Z,51.70
2022-12-28T03:03:59.283Z,51.42
2022-12-28T03:06:53.893Z,51.54
2022-12-28T03:09:31.492Z,51.38
2022-12-28T03:12:02.842Z,51.61
2022-12-28T03:14:38.533Z,51.59
2022-12-28T03:17:23.910Z,51.57
2022-12-28T03:20:13.220Z,51.54
2022-12-28T03:22:58.457Z,51.63
2022-12-28T03:25:45.293Z,51.40
2022-12-28T03:28:32.684Z,51.39
2022-12-28T03:31:05.577Z,51.48
2022-12-28T03:33:37.590Z,51.30
2022-12-28T03:36:07.532Z,51.44
2022-12-28T03:39:07.309Z,51.48
2022-12-28T03:42:15.409Z,51.37
2022-12-28T03:44:43.197Z,51.58
2022-12-28T03:47:11.698Z,51.72
2022-12-28T03:49:38.482Z,51.56
2022-12-28T03:52:05.549Z,51.38
2022-12-28T03:54:32.308Z,51.53
2022-12-28T03:56:59.427Z,51.39
2022-12-28T03:59:26.177Z,51.47
2022-12-28T04:01:53.318Z,51.89
2022-12-28T04:04:20.185Z,51.49
2022-12-28T04:06:47.215Z,51.52
2022-12-28T04:09:14.023Z,51.50
2022-12-28T04:11:41.082Z,51.55
2022-12-28T04:14:10.997Z,51.51
2022-12-28T04:16:38.394Z,51.90
2022-12-28T04:19:05.205Z,51.46
2022-12-28T04:21:32.287Z,51.73
2022-12-28T04:23:59.020Z,51.66
2022-12-28T04:26:26.117Z,51.95
2022-12-28T04:28:53.009Z,51.92
2022-12-28T04:31:20.165Z,51.80
2022-12-28T04:33:46.929Z,51.62
2022-12-28T04:36:15.222Z,51.43
2022-12-28T04:38:42.157Z,51.45
2022-12-28T04:41:09.617Z,51.66
2022-12-28T04:43:36.594Z,51.75
2022-12-28T04:46:05.700Z,51.65
2022-12-28T04:48:32.743Z,51.78
2022-12-28T04:51:05.879Z,51.48
2022-12-28T04:53:32.641Z,51.79
2022-12-28T04:56:04.057Z,51.70
2022-12-28T04:58:30.929Z,51.60
2022-12-28T05:01:05.325Z,51.63
2022-12-28T05:03:32.142Z,51.78
2022-12-28T05:06:03.000Z,51.69
2022-12-28T05:08:32.157Z,51.59
2022-12-28T05:11:00.680Z,51.70
2022-12-28T05:13:27.545Z,51.57
2022-12-28T05:15:54.675Z,51.61
2022-12-28T05:18:21.457Z,51.74
2022-12-28T05:20:48.486Z,51.63
2022-12-28T05:23:15.220Z,51.73
2022-12-28T05:25:42.289Z,51.56
2022-12-28T05:28:09.217Z,51.64
2022-12-28T05:30:36.322Z,51.90
2022-12-28T05:33:03.091Z,51.70
2022-12-28T05:35:30.144Z,51.88
2022-12-28T05:37:56.902Z,51.61
2022-12-28T05:40:24.061Z,51.52
2022-12-28T05:42:51.791Z,51.46
2022-12-28T05:45:19.053Z,51.64
2022-12-28T05:47:45.786Z,51.52
2022-12-28T05:50:12.975Z,51.52
2022-12-28T05:52:39.725Z,51.69
2022-12-28T05:55:06.957Z,51.98
2022-12-28T05:57:33.696Z,51.72
2022-12-28T06:00:00.763Z,51.76
2022-12-28T06:02:27.697Z,51.65
2022-12-28T06:04:55.011Z,51.91
2022-12-28T06:07:21.987Z,51.80
2022-12-28T06:09:49.212Z,51.97
2022-12-28T06:12:16.008Z,51.54
2022-12-28T06:14:43.021Z,51.84
2022-12-28T06:17:09.785Z,51.68
2022-12-28T06:19:36.837Z,51.61
2022-12-28T06:22:03.584Z,51.83
2022-12-28T06:24:30.667Z,51.73
2022-12-28T06:26:57.416Z,51.87
2022-12-28T06:29:24.498Z,51.92
2022-12-28T06:31:51.516Z,52.02
2022-12-28T06:34:18.679Z,51.49
2022-12-28T06:36:46.028Z,51.73
2022-12-28T06:39:13.890Z,51.68
2022-12-28T06:41:40.976Z,51.77
2022-12-28T06:44:09.265Z,51.59
2022-12-28T06:46:36.110Z,51.74
2022-12-28T06:49:03.206Z,51.91
2022-12-28T06:51:31.679Z,51.96
2022-12-28T06:53:58.781Z,51.80
2022-12-28T06:56:27.548Z,51.68
2022-12-28T06:59:02.146Z,52.12
2022-12-28T07:01:35.162Z,52.06
2022-12-28T07:04:03.249Z,51.96
2022-12-28T07:06:30.543Z,52.06
2022-12-28T07:09:01.964Z,51.92
2022-12-28T07:11:29.166Z,52.03
2022-12-28T07:13:56.517Z,51.62
2022-12-28T07:16:24.019Z,52.05
2022-12-28T07:18:51.114Z,51.77
2022-12-28T07:21:25.841Z,51.79
2022-12-28T07:23:53.669Z,51.82
2022-12-28T07:26:25.051Z,52.23
2022-12-28T07:28:53.735Z,51.90
2022-12-28T07:31:25.190Z,52.06
2022-12-28T07:33:53.458Z,51.88
2022-12-28T07:36:20.506Z,51.98
2022-12-28T07:38:47.645Z,51.81
2022-12-28T07:41:15.235Z,51.95
2022-12-28T07:43:42.462Z,52.01
2022-12-28T07:46:11.337Z,52.20
2022-12-28T07:48:38.642Z,52.29
2022-12-28T07:51:13.214Z,52.14
2022-12-28T07:53:40.565Z,52.12
2022-12-28T07:56:07.518Z,52.20
2022-12-28T07:58:34.661Z,52.34
2022-12-28T08:01:08.929Z,52.37
2022-12-28T08:03:36.404Z,52.41
2022-12-28T08:06:10.362Z,52.29
2022-12-28T08:08:38.151Z,52.36
2022-12-28T08:11:05.938Z,52.46
2022-12-28T08:13:39.277Z,52.43
2022-12-28T08:16:06.510Z,52.35
2022-12-28T08:18:33.734Z,52.46
2022-12-28T08:21:05.136Z,52.30
2022-12-28T08:23:32.277Z,52.56
2022-12-28T08:26:15.803Z,52.42
2022-12-28T08:28:43.883Z,52.53
2022-12-28T08:31:15.367Z,52.16
2022-12-28T08:33:42.704Z,52.43
2022-12-28T08:36:09.656Z,52.44
2022-12-28T08:38:37.547Z,52.16
2022-12-28T08:41:05.649Z,52.14
2022-12-28T08:43:32.952Z,52.47
2022-12-28T08:46:13.277Z,52.14
2022-12-28T08:48:40.553Z,52.37
2022-12-28T08:51:09.904Z,52.21
2022-12-28T08:53:37.182Z,52.34
2022-12-28T08:56:10.501Z,52.23
2022-12-28T08:58:38.402Z,52.26
2022-12-28T09:01:09.581Z,52.25
2022-12-28T09:03:41.853Z,52.13
2022-12-28T09:06:10.860Z,52.30
2022-12-28T09:08:38.148Z,51.89
2022-12-28T09:11:06.582Z,52.40
2022-12-28T09:13:33.783Z,52.34
2022-12-28T09:16:05.766Z,52.08
2022-12-28T09:18:32.885Z,52.38
2022-12-28T09:21:09.765Z,51.98
2022-12-28T09:23:36.972Z,52.20
2022-12-28T09:26:18.639Z,52.55
2022-12-28T09:28:50.091Z,52.13
2022-12-28T09:31:17.387Z,52.30
2022-12-28T09:36:47.491Z,52.04
2022-12-28T09:39:19.399Z,52.05
2022-12-28T09:42:15.597Z,52.00
2022-12-28T09:44:57.455Z,51.84
2022-12-28T09:47:33.303Z,51.92
2022-12-28T09:50:16.066Z,51.88
2022-12-28T09:53:19.931Z,52.31
2022-12-28T09:56:03.635Z,51.95
2022-12-28T09:58:31.531Z,51.83
2022-12-28T10:01:00.271Z,51.95
2022-12-28T10:03:33.749Z,51.64
2022-12-28T10:06:00.831Z,51.85
2022-12-28T10:08:27.703Z,51.66
2022-12-28T10:10:55.834Z,51.09
2022-12-28T10:16:16.931Z,51.35
2022-12-28T10:18:43.776Z,51.51
2022-12-28T10:21:10.944Z,51.40
2022-12-28T10:23:50.173Z,51.75
2022-12-28T10:26:24.877Z,51.47
2022-12-28T10:28:54.093Z,51.64
2022-12-28T10:31:35.133Z,51.54
2022-12-28T10:34:02.099Z,51.47
2022-12-28T10:36:33.639Z,50.90
2022-12-28T10:39:00.383Z,50.93
2022-12-28T10:41:36.154Z,51.26
2022-12-28T10:44:38.328Z,51.25
2022-12-28T10:47:00.879Z,51.32
2022-12-28T10:49:28.136Z,51.14
2022-12-28T10:52:02.529Z,50.74
2022-12-28T10:54:31.955Z,50.22
2022-12-28T10:56:59.130Z,50.93
2022-12-28T10:59:27.899Z,50.88
2022-12-28T11:01:59.028Z,50.18
2022-12-28T11:04:26.078Z,50.38
2022-12-28T11:07:03.068Z,50.01
2022-12-28T11:09:35.269Z,49.73
2022-12-28T11:12:40.618Z,49.76
2022-12-28T11:15:12.823Z,49.40
2022-12-28T11:17:40.568Z,49.56
2022-12-28T11:20:12.339Z,49.51
2022-12-28T11:22:39.416Z,49.64
2022-12-28T11:25:06.755Z,49.54
2022-12-28T11:27:34.240Z,49.86
2022-12-28T11:30:01.021Z,49.58
2022-12-28T11:32:31.451Z,49.86
2022-12-28T11:34:58.274Z,49.79
2022-12-28T11:37:25.428Z,49.76
2022-12-28T11:39:52.849Z,50.24
2022-12-28T11:42:40.657Z,49.79
2022-12-28T11:45:14.745Z,50.00
2022-12-28T11:47:41.868Z,49.80
2022-12-28T11:50:39.581Z,50.28
2022-12-28T11:53:21.264Z,50.24
2022-12-28T11:56:04.641Z,50.18
2022-12-28T11:58:40.902Z,49.80
2022-12-28T12:01:33.783Z,49.99
2022-12-28T12:04:00.983Z,49.84
2022-12-28T12:06:48.139Z,49.03
2022-12-28T12:09:21.413Z,49.41
2022-12-28T12:11:49.001Z,48.74
2022-12-28T12:14:16.889Z,49.56
2022-12-28T12:16:50.649Z,49.29
2022-12-28T12:19:26.742Z,49.39
2022-12-28T12:22:21.335Z,48.84
2022-12-28T12:24:55.051Z,49.05
2022-12-28T12:27:33.997Z,49.13
2022-12-28T12:30:05.948Z,48.86
2022-12-28T12:32:41.472Z,48.85
2022-12-28T12:35:08.683Z,48.90
2022-12-28T12:38:07.652Z,48.85
2022-12-28T12:41:04.109Z,48.79
2022-12-28T12:43:39.592Z,48.59
2022-12-28T12:46:06.865Z,48.75
2022-12-28T12:48:52.374Z,48.34
2022-12-28T12:51:22.071Z,48.55
2022-12-28T12:53:58.431Z,48.59
2022-12-28T12:57:05.542Z,48.33
2022-12-28T12:59:56.807Z,48.48
2022-12-28T13:02:30.099Z,48.40
2022-12-28T13:04:57.015Z,48.34
2022-12-28T13:07:25.175Z,48.39
2022-12-28T13:09:52.975Z,48.20
2022-12-28T13:12:20.085Z,48.41
2022-12-28T13:14:57.623Z,48.13
2022-12-28T13:17:24.849Z,48.14
2022-12-28T13:19:51.618Z,48.04
2022-12-28T13:22:29.238Z,48.12
2022-12-28T13:24:56.163Z,48.32
2022-12-28T13:27:23.369Z,48.34
2022-12-28T13:29:53.883Z,48.39
2022-12-28T13:32:37.751Z,48.28
2022-12-28T13:35:19.117Z,48.28
2022-12-28T13:38:19.085Z,48.42
2022-12-28T13:40:50.704Z,48.42
2022-12-28T13:43:36.626Z,48.49
2022-12-28T13:46:08.159Z,48.67
2022-12-28T13:48:41.249Z,48.85
2022-12-28T13:51:11.871Z,49.25
2022-12-28T13:53:38.962Z,49.58
2022-12-28T13:56:06.150Z,50.25
2022-12-28T13:58:48.684Z,50.77
2022-12-28T14:01:21.138Z,50.70
2022-12-28T14:03:50.274Z,51.72
2022-12-28T14:06:17.584Z,51.50
2022-12-28T14:08:44.650Z,51.01
2022-12-28T14:11:11.605Z,51.18
2022-12-28T14:13:38.685Z,52.07
2022-12-28T14:16:05.807Z,52.10
2022-12-28T14:18:33.795Z,51.87
2022-12-28T14:21:00.708Z,51.60
2022-12-28T14:23:35.714Z,52.92
2022-12-28T14:26:10.778Z,52.60
2022-12-28T14:28:39.680Z,52.20
2022-12-28T14:31:09.015Z,52.48
2022-12-28T14:33:38.268Z,51.41
2022-12-28T14:36:06.241Z,51.64
2022-12-28T14:38:42.598Z,52.02
2022-12-28T14:41:14.167Z,52.56
2022-12-28T14:43:41.219Z,52.60
2022-12-28T14:46:15.963Z,52.28
2022-12-28T14:48:45.495Z,52.85
2022-12-28T14:51:15.372Z,52.94
2022-12-28T14:53:45.027Z,52.87
2022-12-28T14:56:18.363Z,53.55
2022-12-28T14:58:53.479Z,52.99
2022-12-28T15:01:21.919Z,53.32
2022-12-28T15:03:56.207Z,53.45
2022-12-28T15:06:25.955Z,53.59
2022-12-28T15:08:53.805Z,53.89
2022-12-28T15:11:21.924Z,53.42
2022-12-28T15:13:49.178Z,53.20
2022-12-28T15:16:17.952Z,53.04
2022-12-28T15:18:45.346Z,53.29
2022-12-28T15:21:13.618Z,53.16
2022-12-28T15:23:40.846Z,52.81
2022-12-28T15:26:08.880Z,52.65
2022-12-28T15:28:36.150Z,53.40
2022-12-28T15:31:11.457Z,52.84
2022-12-28T15:33:38.683Z,53.16
2022-12-28T15:36:09.503Z,52.72
2022-12-28T15:38:39.271Z,52.78
2022-12-28T15:41:25.965Z,52.98
2022-12-28T15:43:53.037Z,53.37
2022-12-28T15:46:19.813Z,53.29
2022-12-28T15:48:47.796Z,53.32
2022-12-28T15:51:14.797Z,53.16
2022-12-28T15:53:41.932Z,52.87
2022-12-28T15:56:21.642Z,53.90
2022-12-28T15:58:48.690Z,53.09
2022-12-28T16:01:15.729Z,53.99
2022-12-28T16:03:42.922Z,52.70
2022-12-28T16:06:09.700Z,53.82
2022-12-28T16:08:36.763Z,52.89
2022-12-28T16:11:17.468Z,53.43
2022-12-28T16:13:44.762Z,53.15
2022-12-28T16:16:12.472Z,53.95
2022-12-28T16:18:39.793Z,53.26
2022-12-28T16:21:08.025Z,53.21
2022-12-28T16:23:39.803Z,54.17
2022-12-28T16:26:06.729Z,53.44
2022-12-28T16:28:34.159Z,53.09
2022-12-28T16:31:01.415Z,53.92
2022-12-28T16:33:28.591Z,53.19
2022-12-28T16:35:59.462Z,53.63
2022-12-28T16:38:28.099Z,53.23
2022-12-28T16:40:57.150Z,53.87
2022-12-28T16:43:24.381Z,52.94
2022-12-28T16:45:51.397Z,53.36
2022-12-28T16:48:18.687Z,53.06
2022-12-28T16:50:45.514Z,52.93
2022-12-28T16:53:12.585Z,53.29
2022-12-28T16:55:41.271Z,53.94
2022-12-28T16:58:09.552Z,54.26
2022-12-28T17:02:12.190Z,53.72
2022-12-28T17:04:39.836Z,53.64
2022-12-28T17:07:06.915Z,53.94
2022-12-28T17:09:35.270Z,54.36
2022-12-28T17:12:02.197Z,53.41
2022-12-28T17:14:37.342Z,54.49
2022-12-28T17:17:05.399Z,54.48
2022-12-28T17:19:32.645Z,55.06
2022-12-28T17:21:59.435Z,55.01
2022-12-28T17:24:26.715Z,53.64
2022-12-28T17:26:53.793Z,53.51
2022-12-28T17:29:21.302Z,53.23
2022-12-28T17:31:49.382Z,54.23
2022-12-28T17:34:16.998Z,53.21
2022-12-28T17:36:43.789Z,53.48
2022-12-28T17:39:11.261Z,53.77
2022-12-28T17:41:38.588Z,54.16
2022-12-28T17:44:06.924Z,54.43
2022-12-28T17:46:40.945Z,54.61
2022-12-28T17:49:11.722Z,54.50
2022-12-28T17:51:41.848Z,53.97
2022-12-28T17:54:12.591Z,54.39
2022-12-28T17:56:39.508Z,54.42
2022-12-28T17:59:06.831Z,54.32
2022-12-28T18:01:33.767Z,54.47
2022-12-28T18:04:01.210Z,54.44
2022-12-28T18:06:28.146Z,54.63
2022-12-28T18:08:55.465Z,54.20
2022-12-28T18:11:22.267Z,53.89
2022-12-28T18:13:49.620Z,54.80
2022-12-28T18:16:17.738Z,54.31
2022-12-28T18:18:45.065Z,54.69
2022-12-28T18:21:19.427Z,54.55
2022-12-28T18:23:49.082Z,54.84
2022-12-28T18:26:17.738Z,55.07
2022-12-28T18:28:45.006Z,54.71
2022-12-28T18:31:11.800Z,54.77
2022-12-28T18:33:38.975Z,54.62
2022-12-28T18:36:10.238Z,54.70
2022-12-28T18:38:40.350Z,54.75
2022-12-28T18:41:07.235Z,54.71
2022-12-28T18:43:34.554Z,54.82
2022-12-28T18:46:02.926Z,54.67
2022-12-28T18:48:30.643Z,54.92
2022-12-28T18:51:02.226Z,55.07
2022-12-28T18:53:29.836Z,54.83
2022-12-28T18:56:00.620Z,54.79
2022-12-28T18:58:28.655Z,54.80
2022-12-28T19:01:06.021Z,54.83
2022-12-28T19:03:33.653Z,54.90
2022-12-28T19:06:05.333Z,54.73
2022-12-28T19:08:33.167Z,55.26
2022-12-28T19:11:00.703Z,55.07
2022-12-28T19:13:28.933Z,55.32
2022-12-28T19:15:55.747Z,55.23
2022-12-28T19:18:23.087Z,55.17
2022-12-28T19:20:50.266Z,55.08
2022-12-28T19:23:17.867Z,54.91
2022-12-28T19:25:44.787Z,54.54
2022-12-28T19:28:11.892Z,54.92
2022-12-28T19:30:38.843Z,54.91
2022-12-28T19:33:06.238Z,55.03
2022-12-28T19:35:33.010Z,54.92
2022-12-28T19:38:00.103Z,55.11
2022-12-28T19:40:26.979Z,55.26
2022-12-28T19:42:54.100Z,55.13
2022-12-28T19:45:20.878Z,55.34
2022-12-28T19:47:47.976Z,55.37
2022-12-28T19:50:14.956Z,55.24
2022-12-28T19:52:41.984Z,55.26
2022-12-28T19:55:09.188Z,55.95
2022-12-28T19:57:38.940Z,55.37
2022-12-28T20:00:07.423Z,55.54
2022-12-28T20:02:35.975Z,55.61
2022-12-28T20:05:03.152Z,55.62
2022-12-28T20:07:30.849Z,55.58
2022-12-28T20:09:57.918Z,55.91
2022-12-28T20:12:25.152Z,55.56
2022-12-28T20:14:52.069Z,55.42
2022-12-28T20:17:20.465Z,54.96
2022-12-28T20:19:47.277Z,55.41
2022-12-28T20:22:14.452Z,54.88
2022-12-28T20:24:41.555Z,55.14
2022-12-28T20:27:08.825Z,54.63
2022-12-28T20:29:35.734Z,54.88
2022-12-28T20:32:02.892Z,54.90
2022-12-28T20:34:29.995Z,54.74
2022-12-28T20:36:57.167Z,55.17
2022-12-28T20:39:23.962Z,54.57
2022-12-28T20:42:09.657Z,54.84
2022-12-28T20:44:36.907Z,54.49
2022-12-28T20:47:07.033Z,54.91
2022-12-28T20:49:35.839Z,54.99
2022-12-28T20:52:03.024Z,54.66
2022-12-28T20:54:50.828Z,54.60
2022-12-28T20:57:18.634Z,54.61
2022-12-28T20:59:45.707Z,54.51
2022-12-28T21:02:13.403Z,54.71
2022-12-28T21:04:40.292Z,54.92
2022-12-28T21:07:07.521Z,54.81
2022-12-28T21:09:34.375Z,54.73
2022-12-28T21:12:01.982Z,54.75
2022-12-28T21:14:29.886Z,54.69
2022-12-28T21:16:59.283Z,55.02
2022-12-28T21:19:26.342Z,54.94
2022-12-28T21:21:53.442Z,55.02
2022-12-28T21:24:20.212Z,54.73
2022-12-28T21:26:47.300Z,55.06
2022-12-28T21:29:14.093Z,54.91
2022-12-28T21:31:41.297Z,55.08
2022-12-28T21:34:08.136Z,55.14
2022-12-28T21:36:35.573Z,54.88
2022-12-28T21:39:02.390Z,55.02
2022-12-28T21:41:48.242Z,54.84
2022-12-28T21:44:16.876Z,55.00
2022-12-28T21:46:44.593Z,55.13
2022-12-28T21:49:11.572Z,54.90
2022-12-28T21:51:39.389Z,55.12
2022-12-28T21:54:08.054Z,54.60
2022-12-28T21:56:35.302Z,54.83
2022-12-28T21:59:02.237Z,55.16
2022-12-28T22:01:48.064Z,55.15
2022-12-28T22:04:34.897Z,55.09
2022-12-28T22:07:02.273Z,55.15
2022-12-28T22:09:47.823Z,55.10
2022-12-28T22:12:33.620Z,55.11
2022-12-28T22:15:20.947Z,55.51
2022-12-28T22:17:48.023Z,55.84
2022-12-28T22:20:15.365Z,55.78
2022-12-28T22:22:42.726Z,55.96
2022-12-28T22:25:10.021Z,55.67
2022-12-28T22:27:37.117Z,55.48
2022-12-28T22:30:04.421Z,55.63
2022-12-28T22:32:31.655Z,55.57
2022-12-28T22:34:58.414Z,55.54
2022-12-28T22:37:25.449Z,55.40
2022-12-28T22:39:52.310Z,55.98
2022-12-28T22:42:19.344Z,55.74
2022-12-28T22:44:46.095Z,55.30
2022-12-28T22:47:13.147Z,55.25
2022-12-28T22:49:39.898Z,55.34
2022-12-28T22:52:06.972Z,56.31
2022-12-28T22:54:33.739Z,55.85
2022-12-28T22:57:00.815Z,55.70
2022-12-28T22:59:27.620Z,55.65
2022-12-28T23:01:54.807Z,55.80
2022-12-28T23:04:21.721Z,55.96
2022-12-28T23:06:48.826Z,55.71
2022-12-28T23:09:15.585Z,56.16
2022-12-28T23:11:42.812Z,55.59
2022-12-28T23:14:32.755Z,55.51
2022-12-28T23:17:00.165Z,55.75
2022-12-28T23:19:46.185Z,55.79
2022-12-28T23:22:33.711Z,55.55
2022-12-28T23:25:19.140Z,56.02
2022-12-28T23:27:46.202Z,55.69
2022-12-28T23:30:17.481Z,55.75
2022-12-28T23:32:48.326Z,55.94
2022-12-28T23:35:15.561Z,55.68
2022-12-28T23:37:42.643Z,55.47
2022-12-28T23:40:10.803Z,55.33
2022-12-28T23:42:38.532Z,55.52
2022-12-28T23:45:06.159Z,55.54
2022-12-28T23:47:33.345Z,55.73
2022-12-28T23:50:00.212Z,55.56
2022-12-28T23:52:27.673Z,55.25
2022-12-28T23:54:54.413Z,55.40
2022-12-28T23:57:21.683Z,55.05
2022-12-28T23:59:48.437Z,54.89
